Time;durP1;ratioP1;P1;durP2;ratioP2;P2;SDS_P1;SDS_P2;PMS_P1;PMS_P2;Temp;Humidity;BMP_temperature;BMP_pressure;BME280_temperature;BME280_humidity;BME280_pressure;Samples;Min_cycle;Max_cycle;Signal;HPM_P1;HPM_P2
2022/04/23 00:00:56;;;;;;;27.67;20.00;;;;;;;11.29;100.00;94026.16;5093424;28;20261;-58
2022/04/23 00:03:21;;;;;;;25.30;19.43;;;;;;;11.54;100.00;94023.34;5092881;28;20208;-58
2022/04/23 00:05:46;;;;;;;29.90;20.83;;;;;;;11.21;100.00;94022.09;5092661;28;20187;-58
2022/04/23 00:08:11;;;;;;;30.77;21.80;;;;;;;11.03;100.00;94021.94;5092897;28;20195;-58
2022/04/23 00:10:37;;;;;;;30.43;22.20;;;;;;;10.89;100.00;94020.41;5092723;28;20222;-59
2022/04/23 00:13:04;;;;;;;28.40;21.60;;;;;;;10.94;100.00;94030.00;5092489;28;20191;-59
2022/04/23 00:15:36;;;;;;;31.67;23.53;;;;;;;10.99;100.00;94010.34;5095074;28;20281;-58
2022/04/23 00:18:03;;;;;;;30.00;21.47;;;;;;;10.79;100.00;94018.00;5096405;28;20198;-59
2022/04/23 00:20:30;;;;;;;29.87;21.57;;;;;;;10.93;100.00;94012.09;5095989;28;20212;-59
2022/04/23 00:22:55;;;;;;;28.63;20.87;;;;;;;10.74;100.00;94015.84;5096212;28;20601;-59
2022/04/23 00:25:20;;;;;;;31.53;21.97;;;;;;;10.59;100.00;94009.28;5096147;28;20213;-58
2022/04/23 00:27:46;;;;;;;30.67;21.83;;;;;;;10.65;100.00;94018.44;5096183;28;20189;-59
2022/04/23 00:30:11;;;;;;;32.03;22.53;;;;;;;10.88;100.00;94004.44;5096800;28;20191;-58
2022/04/23 00:32:37;;;;;;;31.73;22.87;;;;;;;10.56;100.00;94010.91;5095947;28;20188;-59
2022/04/23 00:35:03;;;;;;;31.07;21.57;;;;;;;10.81;100.00;94007.44;5095751;28;20195;-59
2022/04/23 00:37:28;;;;;;;32.07;22.47;;;;;;;10.64;100.00;94012.25;5096141;28;20196;-59
2022/04/23 00:39:54;;;;;;;30.13;21.67;;;;;;;10.61;100.00;94006.88;5095901;28;20188;-58
2022/04/23 00:42:20;;;;;;;29.33;21.40;;;;;;;10.97;100.00;94002.59;5096302;28;20193;-59
2022/04/23 00:44:45;;;;;;;29.93;20.93;;;;;;;11.05;100.00;94006.63;5096425;28;20177;-58
2022/04/23 00:47:10;;;;;;;28.23;21.27;;;;;;;10.93;100.00;94010.13;5095641;28;20195;-59
2022/04/23 00:49:36;;;;;;;30.30;22.07;;;;;;;10.87;100.00;94006.44;5095940;28;20219;-59
2022/04/23 00:52:02;;;;;;;29.67;22.47;;;;;;;10.72;100.00;94018.22;5095142;28;20184;-62
2022/04/23 00:54:27;;;;;;;29.83;22.17;;;;;;;10.77;100.00;94014.94;5095665;28;20596;-59
2022/04/23 00:56:53;;;;;;;30.43;22.40;;;;;;;11.04;100.00;94007.06;5096033;28;20231;-59
2022/04/23 00:59:18;;;;;;;30.87;22.33;;;;;;;10.56;100.00;94018.34;5095571;28;20197;-59
2022/04/23 01:01:44;;;;;;;31.03;21.90;;;;;;;10.54;100.00;94007.09;5095384;28;20204;-58
2022/04/23 01:04:12;;;;;;;30.77;21.90;;;;;;;10.65;100.00;94018.44;5095464;28;20196;-59
2022/04/23 01:06:38;;;;;;;29.77;21.93;;;;;;;10.75;100.00;94012.69;5096581;28;20177;-58
2022/04/23 01:09:08;;;;;;;28.77;21.03;;;;;;;10.52;100.00;94021.16;5095331;28;20524;-59
2022/04/23 01:11:35;;;;;;;26.03;19.23;;;;;;;10.71;100.00;94016.72;5095615;28;20185;-59
2022/04/23 01:14:01;;;;;;;28.93;20.70;;;;;;;10.76;100.00;94006.00;5095948;28;20188;-59
2022/04/23 01:16:27;;;;;;;25.53;19.60;;;;;;;10.57;100.00;94008.94;5095376;28;20205;-59
2022/04/23 01:18:53;;;;;;;27.53;19.53;;;;;;;10.40;100.00;94002.06;5095216;28;20223;-59
2022/04/23 01:21:18;;;;;;;25.97;19.77;;;;;;;10.55;100.00;94011.34;5095416;28;20235;-59
2022/04/23 01:23:46;;;;;;;22.20;17.67;;;;;;;10.21;100.00;94016.66;5095423;28;20190;-59
2022/04/23 01:26:14;;;;;;;25.47;17.93;;;;;;;10.40;100.00;94012.97;5095060;28;20284;-59
2022/04/23 01:28:40;;;;;;;24.67;17.90;;;;;;;10.42;100.00;94016.03;5095160;28;20187;-58
2022/04/23 01:31:06;;;;;;;26.77;18.03;;;;;;;10.61;100.00;94013.13;5095656;28;20320;-58
2022/04/23 01:33:35;;;;;;;23.37;17.67;;;;;;;10.49;100.00;94015.84;5095269;28;20184;-58
2022/04/23 01:36:02;;;;;;;22.10;16.90;;;;;;;10.57;100.00;94017.13;5095078;28;20658;-58
2022/04/23 01:38:27;;;;;;;23.10;17.07;;;;;;;10.47;100.00;94023.69;5094875;28;20270;-58
2022/04/23 01:40:52;;;;;;;21.60;16.13;;;;;;;10.30;100.00;94027.72;5094915;28;20314;-59
2022/04/23 01:43:18;;;;;;;22.70;16.93;;;;;;;10.72;100.00;94023.69;5095478;28;20190;-59
2022/04/23 01:45:44;;;;;;;22.67;16.33;;;;;;;10.70;100.00;94026.13;5094611;28;20186;-59
2022/04/23 01:48:09;;;;;;;19.60;14.37;;;;;;;10.50;100.00;94023.59;5095059;28;20195;-58
2022/04/23 01:50:35;;;;;;;20.27;15.87;;;;;;;10.20;100.00;94032.25;5094721;28;20217;-59
2022/04/23 01:53:02;;;;;;;21.93;15.47;;;;;;;10.49;100.00;94026.75;5094867;28;20199;-59
2022/04/23 01:55:27;;;;;;;21.43;16.23;;;;;;;10.22;100.00;94029.09;5094650;28;20182;-59
2022/04/23 01:57:53;;;;;;;19.60;15.07;;;;;;;10.46;100.00;94035.81;5095104;28;20189;-58
2022/04/23 02:00:18;;;;;;;21.70;15.53;;;;;;;10.31;100.00;94023.78;5095086;28;20199;-59
2022/04/23 02:02:44;;;;;;;20.77;15.73;;;;;;;10.65;100.00;94023.91;5095019;28;20185;-58
2022/04/23 02:05:10;;;;;;;21.27;15.33;;;;;;;10.50;100.00;94029.03;5094571;28;20263;-59
2022/04/23 02:07:40;;;;;;;20.33;14.83;;;;;;;10.53;100.00;94019.22;5094619;28;20215;-58
2022/04/23 02:10:07;;;;;;;19.73;15.03;;;;;;;10.59;100.00;94029.16;5095615;28;20179;-59
2022/04/23 02:12:33;;;;;;;18.47;14.17;;;;;;;10.49;100.00;94038.41;5094571;28;20209;-58
2022/04/23 02:14:59;;;;;;;19.63;14.63;;;;;;;10.31;100.00;94029.25;5094558;28;20273;-58
2022/04/23 02:17:41;;;;;;;20.80;15.33;;;;;;;10.26;100.00;94032.50;5094213;28;20293;-58
2022/04/23 02:20:12;;;;;;;21.20;15.30;;;;;;;10.46;100.00;94033.84;5094041;28;20200;-58
2022/04/23 02:22:38;;;;;;;21.07;14.70;;;;;;;10.35;100.00;94027.16;5094816;28;20192;-59
2022/04/23 02:25:05;;;;;;;19.17;15.03;;;;;;;10.40;100.00;94023.88;5094063;28;20317;-60
2022/04/23 02:27:44;;;;;;;20.77;15.07;;;;;;;10.28;100.00;94016.47;5094154;28;20249;-59
2022/04/23 02:30:11;;;;;;;19.67;15.10;;;;;;;10.22;100.00;94015.47;5094255;28;20187;-59
2022/04/23 02:32:36;;;;;;;21.37;15.60;;;;;;;10.27;100.00;94009.47;5094190;28;20184;-59
2022/04/23 02:35:04;;;;;;;22.33;15.87;;;;;;;10.10;100.00;94017.72;5094022;28;20184;-59
2022/04/23 02:37:34;;;;;;;21.80;15.70;;;;;;;10.17;100.00;94021.47;5094452;28;20195;-59
2022/04/23 02:40:00;;;;;;;19.77;14.97;;;;;;;10.36;100.00;94018.56;5093823;28;20196;-58
2022/04/23 02:42:25;;;;;;;21.87;15.97;;;;;;;10.48;100.00;94009.59;5093808;28;20176;-59
2022/04/23 02:44:51;;;;;;;21.27;16.30;;;;;;;10.05;100.00;94009.28;5094184;28;20255;-58
2022/04/23 02:47:17;;;;;;;25.37;17.13;;;;;;;10.18;100.00;94009.34;5094487;28;20197;-59
2022/04/23 02:49:42;;;;;;;24.00;17.03;;;;;;;9.96;100.00;94007.22;5094001;28;20648;-58
2022/04/23 02:52:07;;;;;;;24.70;17.47;;;;;;;10.18;100.00;94007.41;5093759;28;20279;-59
2022/04/23 02:54:32;;;;;;;22.20;16.93;;;;;;;9.91;100.00;94010.47;5093871;28;20259;-58
2022/04/23 02:56:58;;;;;;;23.90;17.17;;;;;;;9.78;100.00;94006.94;5094278;28;20207;-59
2022/04/23 02:59:23;;;;;;;21.47;15.87;;;;;;;10.08;100.00;94009.22;5093888;28;20205;-59
2022/04/23 03:01:48;;;;;;;21.60;16.20;;;;;;;10.05;100.00;94010.09;5094037;28;20232;-59
2022/04/23 03:04:15;;;;;;;24.03;16.27;;;;;;;10.16;100.00;94009.03;5093970;28;20188;-59
2022/04/23 03:06:40;;;;;;;23.17;16.67;;;;;;;10.36;100.00;94012.31;5094065;28;20640;-59
2022/04/23 03:09:06;;;;;;;22.27;16.40;;;;;;;10.31;100.00;94010.16;5093696;28;20191;-60
2022/04/23 03:11:31;;;;;;;22.90;16.63;;;;;;;10.34;100.00;94012.75;5094495;28;20266;-59
2022/04/23 03:14:00;;;;;;;23.40;17.90;;;;;;;10.04;100.00;94008.53;5094010;28;20197;-58
2022/04/23 03:16:26;;;;;;;23.20;16.27;;;;;;;10.10;100.00;94017.72;5093462;28;20278;-59
2022/04/23 03:18:53;;;;;;;22.40;16.77;;;;;;;9.91;100.00;94010.47;5093267;28;20198;-58
2022/04/23 03:21:18;;;;;;;20.17;15.47;;;;;;;9.91;100.00;94015.16;5093153;28;20200;-59
2022/04/23 03:23:43;;;;;;;23.50;16.87;;;;;;;9.90;100.00;94019.06;5093925;28;20210;-59
2022/04/23 03:26:09;;;;;;;21.70;15.93;;;;;;;10.04;100.00;94024.91;5093137;28;20301;-59
2022/04/23 03:28:35;;;;;;;22.50;16.63;;;;;;;9.89;100.00;94021.06;5093396;28;20194;-59
2022/04/23 03:31:00;;;;;;;22.37;16.73;;;;;;;9.84;100.00;94020.81;5093446;28;20204;-59
2022/04/23 03:33:26;;;;;;;22.17;16.43;;;;;;;9.65;100.00;94021.72;5093376;28;20192;-58
2022/04/23 03:35:52;;;;;;;24.27;17.43;;;;;;;9.59;100.00;94029.66;5093247;28;20194;-59
2022/04/23 03:38:17;;;;;;;22.30;17.10;;;;;;;9.78;100.00;94028.75;5093366;28;20180;-59
2022/04/23 03:40:42;;;;;;;23.97;17.67;;;;;;;9.82;100.00;94026.69;5093029;28;20219;-59
2022/04/23 03:43:08;;;;;;;21.77;16.33;;;;;;;9.79;100.00;94022.09;5093921;28;20191;-59
2022/04/23 03:45:33;;;;;;;22.07;16.77;;;;;;;9.75;100.00;94021.44;5093067;28;20197;-59
2022/04/23 03:47:59;;;;;;;21.73;16.33;;;;;;;9.84;100.00;94021.56;5092887;28;20272;-59
2022/04/23 03:50:26;;;;;;;23.07;16.57;;;;;;;9.91;100.00;94018.63;5092822;28;20196;-58
2022/04/23 03:52:51;;;;;;;22.57;17.20;;;;;;;9.73;100.00;94015.63;5093563;28;20238;-58
2022/04/23 03:55:16;;;;;;;21.40;16.00;;;;;;;9.97;100.00;94013.41;5093465;28;20192;-59
2022/04/23 03:57:44;;;;;;;21.77;16.40;;;;;;;10.07;100.00;94010.44;5092865;28;20180;-59
2022/04/23 04:00:10;;;;;;;22.37;15.63;;;;;;;9.80;100.00;94007.28;5092732;28;20233;-59
2022/04/23 04:02:35;;;;;;;21.60;16.13;;;;;;;10.07;100.00;94002.25;5076190;28;20183;-59
2022/04/23 04:05:01;;;;;;;22.57;16.77;;;;;;;10.09;100.00;94005.31;5092868;28;20179;-59
2022/04/23 04:07:27;;;;;;;21.03;15.40;;;;;;;10.08;100.00;94011.97;5092826;28;20186;-58
2022/04/23 04:09:52;;;;;;;24.03;16.17;;;;;;;9.93;100.00;94005.34;5093176;28;20214;-58
2022/04/23 04:12:17;;;;;;;21.50;15.40;;;;;;;10.08;100.00;94009.22;5093035;28;20188;-58
2022/04/23 04:14:43;;;;;;;21.03;15.40;;;;;;;9.95;100.00;94011.13;5092471;28;20222;-59
2022/04/23 04:17:10;;;;;;;21.57;14.43;;;;;;;9.66;100.00;94021.28;5093369;28;20180;-59
2022/04/23 04:19:36;;;;;;;21.70;14.93;;;;;;;9.86;100.00;94019.19;5093082;28;20182;-59
2022/04/23 04:22:02;;;;;;;21.57;15.70;;;;;;;9.78;100.00;94011.63;5092620;28;20294;-59
2022/04/23 04:24:28;;;;;;;22.30;15.87;;;;;;;9.78;100.00;94011.63;5092348;28;20194;-59
2022/04/23 04:26:54;;;;;;;22.73;15.73;;;;;;;9.75;100.00;94007.81;5092676;28;20186;-59
2022/04/23 04:29:20;;;;;;;22.73;16.80;;;;;;;9.67;100.00;94011.16;5092910;28;20192;-58
2022/04/23 04:31:49;;;;;;;22.43;15.30;;;;;;;9.59;100.00;93999.66;5093016;28;20186;-58
2022/04/23 04:34:28;;;;;;;22.27;15.73;;;;;;;9.63;100.00;93989.47;5092688;28;20211;-58
2022/04/23 04:37:05;;;;;;;21.77;15.20;;;;;;;9.83;100.00;93989.28;5092162;28;20185;-58
2022/04/23 04:39:30;;;;;;;21.73;15.53;;;;;;;9.75;100.00;93986.00;5092863;28;20284;-58
2022/04/23 04:41:56;;;;;;;22.03;15.93;;;;;;;9.67;100.00;94005.69;5092846;28;20265;-58
2022/04/23 04:44:21;;;;;;;21.00;14.87;;;;;;;9.67;100.00;93986.63;5092089;28;20194;-59
2022/04/23 04:46:47;;;;;;;21.60;15.13;;;;;;;9.60;100.00;93987.59;5092403;28;20192;-60
2022/04/23 04:49:12;;;;;;;22.20;15.17;;;;;;;9.60;100.00;93973.97;5092143;28;20201;-58
2022/04/23 04:51:37;;;;;;;23.27;14.87;;;;;;;9.63;100.00;93984.00;5092268;28;20613;-58
2022/04/23 04:54:04;;;;;;;21.73;15.03;;;;;;;9.85;100.00;93982.22;5092121;28;20191;-58
2022/04/23 04:56:30;;;;;;;21.67;15.00;;;;;;;9.90;100.00;93976.22;5092259;28;20183;-58
2022/04/23 04:58:55;;;;;;;21.17;14.37;;;;;;;9.94;100.00;93985.06;5091918;28;20191;-58
2022/04/23 05:01:21;;;;;;;24.00;15.93;;;;;;;10.03;100.00;93981.69;5093870;28;20212;-58
2022/04/23 05:03:46;;;;;;;23.07;15.53;;;;;;;9.96;100.00;93993.59;5095643;28;20195;-59
2022/04/23 05:06:12;;;;;;;23.73;15.13;;;;;;;9.94;100.00;93987.78;5096645;28;20184;-60
2022/04/23 05:08:38;;;;;;;20.40;14.17;;;;;;;10.33;100.00;93985.91;5095290;28;20187;-59
2022/04/23 05:11:04;;;;;;;22.53;14.93;;;;;;;9.96;100.00;93996.31;5095380;28;20244;-59
2022/04/23 05:13:29;;;;;;;21.17;14.83;;;;;;;10.14;100.00;93996.56;5095307;28;20183;-60
2022/04/23 05:15:55;;;;;;;20.73;14.73;;;;;;;10.09;100.00;94005.31;5095267;28;20276;-59
2022/04/23 05:18:21;;;;;;;22.07;14.30;;;;;;;10.57;100.00;94006.22;5095245;28;20241;-60
2022/04/23 05:20:46;;;;;;;21.87;14.63;;;;;;;10.24;100.00;94016.56;5095312;28;20213;-60
2022/04/23 05:23:13;;;;;;;19.27;13.60;;;;;;;10.18;100.00;94017.53;5095383;28;20190;-59
2022/04/23 05:25:38;;;;;;;20.60;14.40;;;;;;;10.24;100.00;94021.25;5095028;28;20235;-58
2022/04/23 05:28:04;;;;;;;23.93;15.10;;;;;;;10.15;100.00;94016.44;5095592;28;20611;-59
2022/04/23 05:30:29;;;;;;;20.50;13.90;;;;;;;9.98;100.00;94009.50;5095166;28;20192;-59
2022/04/23 05:32:54;;;;;;;21.47;13.70;;;;;;;10.09;100.00;94021.66;5094762;28;20190;-59
2022/04/23 05:35:20;;;;;;;24.17;15.37;;;;;;;10.05;100.00;94009.28;5095041;28;20282;-59
2022/04/23 05:37:45;;;;;;;20.73;14.73;;;;;;;10.00;100.00;94002.44;5095261;28;20272;-60
2022/04/23 05:40:11;;;;;;;22.17;15.47;;;;;;;9.98;100.00;93999.34;5095352;28;20192;-59
2022/04/23 05:42:36;;;;;;;20.70;14.63;;;;;;;10.05;100.00;94004.63;5095455;28;20186;-58
2022/04/23 05:45:02;;;;;;;21.80;14.50;;;;;;;10.16;100.00;93992.66;5095011;28;20237;-58
2022/04/23 05:47:27;;;;;;;21.23;14.67;;;;;;;10.33;100.00;93988.63;5094528;28;20192;-59
2022/04/23 05:49:52;;;;;;;19.07;13.63;;;;;;;10.16;100.00;93998.13;5095351;28;20185;-59
2022/04/23 05:52:18;;;;;;;20.60;14.17;;;;;;;10.35;100.00;94000.66;5094981;28;20190;-58
2022/04/23 05:54:43;;;;;;;22.00;13.83;;;;;;;10.65;100.00;93999.34;5094823;28;20181;-59
2022/04/23 05:57:08;;;;;;;20.00;14.00;;;;;;;10.65;100.00;93993.88;5094613;28;20187;-59
2022/04/23 05:59:34;;;;;;;21.97;14.17;;;;;;;10.13;100.00;93995.03;5094774;28;20195;-58
2022/04/23 06:02:00;;;;;;;20.80;14.27;;;;;;;10.10;100.00;93987.72;5094535;28;20232;-58
2022/04/23 06:04:29;;;;;;;22.53;14.17;;;;;;;10.25;100.00;93979.13;5094531;28;20186;-58
2022/04/23 06:06:55;;;;;;;20.93;14.20;;;;;;;10.53;100.00;93992.69;5094701;28;20200;-58
2022/04/23 06:09:21;;;;;;;22.40;14.40;;;;;;;10.48;100.00;93998.69;5094874;28;20186;-59
2022/04/23 06:11:46;;;;;;;22.07;14.63;;;;;;;10.46;100.00;94003.06;5094432;28;20200;-59
2022/04/23 06:14:12;;;;;;;20.13;13.60;;;;;;;10.65;100.00;94002.06;5094261;28;20190;-59
2022/04/23 06:16:37;;;;;;;21.40;13.53;;;;;;;10.53;100.00;94005.56;5094614;28;20192;-59
2022/04/23 06:19:03;;;;;;;22.43;13.87;;;;;;;10.75;100.00;94009.94;5094378;28;20241;-59
2022/04/23 06:21:28;;;;;;;22.13;14.43;;;;;;;10.85;100.00;94010.81;5094163;28;20219;-59
2022/04/23 06:23:54;;;;;;;21.07;14.13;;;;;;;10.76;100.00;94007.97;5094713;28;20196;-59
2022/04/23 06:26:19;;;;;;;21.70;13.13;;;;;;;10.57;100.00;94006.22;5094774;28;20212;-59
2022/04/23 06:28:44;;;;;;;21.40;13.43;;;;;;;10.60;100.00;94013.53;5094574;28;20184;-59
2022/04/23 06:31:10;;;;;;;18.60;12.57;;;;;;;10.71;100.00;93997.59;5094266;28;20251;-60
2022/04/23 06:33:36;;;;;;;19.53;13.03;;;;;;;10.73;100.00;93997.91;5094449;28;20192;-58
2022/04/23 06:36:01;;;;;;;21.83;14.43;;;;;;;11.00;100.00;93995.50;5094165;28;20316;-59
2022/04/23 06:38:27;;;;;;;21.13;13.60;;;;;;;10.90;100.00;94002.06;5094122;28;20218;-59
2022/04/23 06:40:52;;;;;;;20.93;13.90;;;;;;;11.05;100.00;93998.44;5093956;28;20203;-59
2022/04/23 06:43:17;;;;;;;20.10;13.20;;;;;;;10.67;100.00;93996.94;5094316;28;20199;-59
2022/04/23 06:45:43;;;;;;;21.63;13.63;;;;;;;10.66;100.00;93998.13;5094052;28;20203;-59
2022/04/23 06:48:08;;;;;;;18.93;12.87;;;;;;;10.75;100.00;93996.28;5093882;28;20218;-60
2022/04/23 06:50:35;;;;;;;20.67;13.53;;;;;;;10.90;100.00;93996.59;5093754;28;20194;-59
2022/04/23 06:53:01;;;;;;;22.23;14.03;;;;;;;10.89;100.00;94016.94;5093961;28;20191;-58
2022/04/23 06:55:27;;;;;;;20.67;13.40;;;;;;;10.94;100.00;94013.63;5093669;28;20192;-60
2022/04/23 06:57:53;;;;;;;19.97;13.27;;;;;;;10.82;100.00;94012.44;5093570;28;20286;-59
2022/04/23 07:00:19;;;;;;;19.17;13.63;;;;;;;10.81;100.00;94010.16;5093580;28;20188;-59
2022/04/23 07:02:44;;;;;;;20.77;13.10;;;;;;;10.72;100.00;94007.31;5093780;28;20185;-59
2022/04/23 07:05:10;;;;;;;20.40;12.33;;;;;;;10.80;100.00;94008.59;5093452;28;20186;-59
2022/04/23 07:07:35;;;;;;;22.00;12.80;;;;;;;11.06;100.00;94005.41;5093365;28;20188;-59
2022/04/23 07:10:00;;;;;;;17.73;11.90;;;;;;;10.96;100.00;94005.78;5093561;28;20188;-59
2022/04/23 07:12:26;;;;;;;18.70;12.17;;;;;;;11.06;100.00;94005.41;5093316;28;20190;-59
2022/04/23 07:14:51;;;;;;;18.60;12.23;;;;;;;11.11;100.00;94009.56;5093239;28;20192;-59
2022/04/23 07:17:26;;;;;;;21.50;13.00;;;;;;;10.84;100.00;94003.81;5093703;28;20270;-59
2022/04/23 07:19:55;;;;;;;19.00;12.47;;;;;;;10.92;100.00;94007.84;5093220;28;20201;-58
2022/04/23 07:22:20;;;;;;;19.27;12.80;;;;;;;10.99;100.00;93999.41;5093304;28;20266;-59
2022/04/23 07:24:50;;;;;;;17.93;12.20;;;;;;;11.05;100.00;94003.91;5092009;28;20239;-59
2022/04/23 07:27:15;;;;;;;19.47;13.20;;;;;;;10.99;100.00;94011.09;5093801;28;20184;-59
2022/04/23 07:29:41;;;;;;;21.57;13.30;;;;;;;11.11;100.00;94001.38;5093285;28;20261;-58
2022/04/23 07:32:07;;;;;;;21.67;13.43;;;;;;;11.02;100.00;94004.78;5093411;28;20202;-59
2022/04/23 07:37:28;;;;;;;23.00;13.60;;;;;;;11.08;100.00;93997.56;5094367;28;20269;-58
2022/04/23 07:39:58;;;;;;;20.23;14.03;;;;;;;11.34;100.00;93995.50;5092969;28;20200;-59
2022/04/23 07:42:24;;;;;;;21.37;14.20;;;;;;;11.77;100.00;93987.41;5092614;28;20201;-58
2022/04/23 07:44:50;;;;;;;19.53;12.80;;;;;;;11.27;100.00;93993.78;5092970;28;20305;-58
2022/04/23 07:47:15;;;;;;;20.47;13.33;;;;;;;11.14;100.00;94003.22;5092758;28;20205;-58
2022/04/23 07:49:43;;;;;;;20.10;13.13;;;;;;;11.49;100.00;93994.59;5092629;28;20210;-58
2022/04/23 07:52:08;;;;;;;20.47;13.17;;;;;;;11.37;100.00;94000.09;5092863;28;20212;-60
2022/04/23 07:54:37;;;;;;;19.63;13.13;;;;;;;11.44;100.00;93980.72;5092799;28;20187;-59
2022/04/23 07:57:03;;;;;;;23.90;14.87;;;;;;;11.30;100.00;93992.13;5092808;28;20223;-58
2022/04/23 07:59:29;;;;;;;21.50;13.80;;;;;;;11.16;100.00;93993.38;5092505;28;20187;-59
2022/04/23 08:01:56;;;;;;;18.70;12.63;;;;;;;11.35;100.00;93988.84;5092384;28;20211;-59
2022/04/23 08:04:21;;;;;;;19.73;12.87;;;;;;;11.76;100.00;93980.41;5092323;28;20215;-58
2022/04/23 08:06:46;;;;;;;17.83;13.10;;;;;;;11.67;100.00;93983.84;5092680;28;20188;-59
2022/04/23 08:09:12;;;;;;;19.03;12.67;;;;;;;12.09;100.00;93981.56;5093658;28;20214;-59
2022/04/23 08:11:37;;;;;;;18.20;12.33;;;;;;;11.79;100.00;93990.44;5093189;28;20203;-59
2022/04/23 08:14:03;;;;;;;19.40;12.73;;;;;;;11.66;100.00;93981.56;5092617;28;20196;-58
2022/04/23 08:16:29;;;;;;;22.43;13.40;;;;;;;11.87;100.00;93978.06;5092571;28;20275;-60
2022/04/23 08:18:55;;;;;;;19.43;13.03;;;;;;;11.95;100.00;93966.41;5092226;28;20191;-58
2022/04/23 08:21:21;;;;;;;21.57;13.43;;;;;;;12.03;100.00;93975.13;5092611;28;20245;-59
2022/04/23 08:23:46;;;;;;;22.40;13.67;;;;;;;11.91;100.00;93971.22;5093287;28;20245;-58
2022/04/23 08:26:11;;;;;;;18.40;13.53;;;;;;;11.98;100.00;93964.75;5092207;28;20207;-59
2022/04/23 08:31:21;;;;;;;19.77;13.83;;;;;;;12.11;100.00;93974.41;5093906;28;20313;-59
2022/04/23 08:33:58;;;;;;;20.17;14.40;;;;;;;12.41;100.00;93981.88;5092687;28;20220;-59
2022/04/23 08:36:29;;;;;;;20.90;13.60;;;;;;;12.36;100.00;93981.69;5095599;28;20215;-59
2022/04/23 08:38:56;;;;;;;21.30;13.67;;;;;;;12.44;100.00;93991.16;5096399;28;20185;-59
2022/04/23 08:41:28;;;;;;;19.83;13.60;;;;;;;12.46;100.00;94002.44;5095641;28;20243;-59
2022/04/23 08:43:56;;;;;;;22.57;15.33;;;;;;;12.38;100.00;93992.94;5096507;28;20188;-58
2022/04/23 08:46:23;;;;;;;20.80;14.33;;;;;;;12.67;100.00;93985.94;5096157;28;20197;-58
2022/04/23 08:48:50;;;;;;;18.67;14.17;;;;;;;12.52;100.00;93993.19;5096140;28;20193;-58
2022/04/23 08:51:20;;;;;;;21.07;15.23;;;;;;;12.46;100.00;93999.69;5095759;28;20193;-58
2022/04/23 08:53:47;;;;;;;21.87;15.20;;;;;;;12.53;100.00;94002.91;5095469;28;20188;-58
2022/04/23 08:56:13;;;;;;;21.07;14.67;;;;;;;12.45;100.00;94000.88;5095525;28;20188;-59
2022/04/23 08:58:39;;;;;;;20.30;15.53;;;;;;;12.36;100.00;93998.88;5096088;28;20242;-58
2022/04/23 09:01:06;;;;;;;20.43;15.20;;;;;;;12.60;100.00;93999.13;5095469;28;20267;-58
2022/04/23 09:03:31;;;;;;;18.20;14.63;;;;;;;12.38;100.00;94001.16;5095345;28;20330;-59
2022/04/23 09:05:56;;;;;;;20.33;14.80;;;;;;;12.58;100.00;93990.63;5095357;28;20299;-58
2022/04/23 09:08:23;;;;;;;18.93;14.50;;;;;;;12.57;100.00;93994.56;5095565;28;20550;-58
2022/04/23 09:10:56;;;;;;;19.53;15.03;;;;;;;12.87;100.00;93997.28;5096805;28;20268;-58
2022/04/23 09:13:29;;;;;;;19.03;15.13;;;;;;;12.93;100.00;93983.75;5095401;28;20196;-58
2022/04/23 09:24:46;;;;;;;17.53;14.03;;;;;;;12.98;100.00;93991.41;5096569;28;20214;-59
2022/04/23 09:27:11;;;;;;;18.17;14.00;;;;;;;13.56;100.00;93986.63;5095153;28;20323;-59
2022/04/23 09:29:36;;;;;;;16.33;13.13;;;;;;;13.56;100.00;93986.63;5095071;28;20193;-59
2022/04/23 09:32:09;;;;;;;16.40;13.13;;;;;;;13.75;100.00;93981.91;5095103;28;20229;-58
2022/04/23 09:34:35;;;;;;;16.27;12.50;;;;;;;13.79;100.00;93983.28;5094902;28;20193;-58
2022/04/23 09:37:00;;;;;;;17.20;13.03;;;;;;;14.09;100.00;93979.59;5094992;28;20231;-58
2022/04/23 09:39:38;;;;;;;15.87;12.73;;;;;;;14.37;100.00;93977.56;5095211;28;20195;-58
2022/04/23 09:42:13;;;;;;;17.20;12.57;;;;;;;14.64;100.00;93994.75;5095185;28;20216;-59
2022/04/23 09:44:39;;;;;;;12.87;10.80;;;;;;;14.35;100.00;93986.28;5095172;28;20193;-58
2022/04/23 09:47:05;;;;;;;14.60;11.67;;;;;;;14.44;100.00;93983.53;5093582;28;20280;-59
2022/04/23 09:49:30;;;;;;;13.80;11.13;;;;;;;14.74;100.00;93985.25;5094898;28;20209;-59
2022/04/23 09:51:59;;;;;;;15.27;10.70;;;;;;;14.65;100.00;93982.53;5094723;28;20218;-58
2022/04/23 09:54:27;;;;;;;13.80;10.77;;;;;;;14.66;100.00;93978.56;5094624;28;20189;-58
2022/04/23 09:56:53;;;;;;;13.40;10.70;;;;;;;14.49;100.00;93991.13;5094537;28;20194;-59
2022/04/23 09:59:18;;;;;;;14.70;10.87;;;;;;;14.77;100.00;93983.56;5094969;28;20190;-58
2022/04/23 10:01:46;;;;;;;12.40;10.47;;;;;;;14.70;100.00;93983.88;5094521;28;20265;-58
2022/04/23 10:04:13;;;;;;;12.43;10.47;;;;;;;14.67;100.00;93982.81;5094552;28;20260;-59
2022/04/23 10:06:42;;;;;;;10.40;9.00;;;;;;;15.06;100.00;93959.75;5094880;28;20195;-58
2022/04/23 10:09:09;;;;;;;11.40;9.67;;;;;;;15.35;100.00;93968.16;5094277;28;20272;-58
2022/04/23 10:11:37;;;;;;;11.33;9.70;;;;;;;15.54;100.00;93975.06;5094535;28;20192;-59
2022/04/23 10:14:04;;;;;;;10.93;9.77;;;;;;;15.36;100.00;93961.44;5094444;28;20180;-58
2022/04/23 10:16:30;;;;;;;11.93;9.50;;;;;;;15.78;100.00;93966.78;5094225;28;20217;-59
2022/04/23 10:18:56;;;;;;;12.17;10.00;;;;;;;15.56;100.00;93978.09;5094836;28;20249;-59
2022/04/23 10:21:42;;;;;;;12.00;10.00;;;;;;;15.87;100.00;93953.69;5093673;28;20219;-59
2022/04/23 10:24:13;;;;;;;12.17;9.73;;;;;;;16.01;100.00;93963.97;5079939;28;20204;-59
2022/04/23 10:26:48;;;;;;;10.87;9.13;;;;;;;16.65;99.60;93971.63;5094923;28;20192;-59
2022/04/23 10:29:15;;;;;;;10.43;9.20;;;;;;;16.50;100.00;93962.59;5094559;28;20196;-60
2022/04/23 10:31:42;;;;;;;12.27;10.97;;;;;;;17.33;96.40;93970.16;5094104;28;20191;-59
2022/04/23 10:34:32;;;;;;;12.33;10.93;;;;;;;17.63;92.43;93949.50;5094050;28;20192;-59
2022/04/23 10:37:25;;;;;;;14.17;12.67;;;;;;;16.60;97.36;93958.53;5095081;28;20195;-58
2022/04/23 10:39:50;;;;;;;15.30;13.70;;;;;;;16.90;97.45;93952.47;5091320;28;20196;-58
2022/04/23 10:42:17;;;;;;;16.73;14.43;;;;;;;17.25;94.42;93957.97;5094160;28;20208;-58
2022/04/23 10:44:46;;;;;;;14.03;11.97;;;;;;;17.11;92.21;93975.38;5093618;28;20212;-58
2022/04/23 10:47:35;;;;;;;14.23;12.73;;;;;;;17.13;95.93;93962.59;5093821;28;20568;-59
2022/04/23 10:50:19;;;;;;;14.80;12.83;;;;;;;17.18;94.49;93977.69;5094081;28;20248;-59
2022/04/23 10:52:46;;;;;;;15.23;13.47;;;;;;;17.11;95.04;93976.09;5093696;28;20641;-59
2022/04/23 10:55:13;;;;;;;15.93;13.87;;;;;;;17.06;94.87;93967.75;5093940;28;20230;-59
2022/04/23 10:57:39;;;;;;;15.63;13.70;;;;;;;16.74;97.66;93964.00;5094103;28;20209;-59
2022/04/23 11:00:16;;;;;;;14.60;13.03;;;;;;;16.74;97.01;93971.50;5093441;28;20180;-59
2022/04/23 11:02:45;;;;;;;16.80;12.50;;;;;;;16.56;98.79;93964.22;5093464;28;20245;-59
2022/04/23 11:14:50;;;;;;;17.50;13.23;;;;;;;16.47;98.36;93982.84;5094884;28;20199;-58
2022/04/23 11:17:22;;;;;;;18.73;14.67;;;;;;;16.02;100.00;93979.25;5093225;28;20180;-59
2022/04/23 11:19:52;;;;;;;18.17;14.17;;;;;;;16.87;98.12;93974.75;5093976;28;20231;-58
2022/04/23 11:22:19;;;;;;;18.97;13.93;;;;;;;16.87;97.05;93971.97;5092986;28;20208;-58
2022/04/23 11:24:46;;;;;;;19.17;14.70;;;;;;;16.38;100.00;93976.16;5093693;28;20208;-58
2022/04/23 11:27:36;;;;;;;17.80;15.13;;;;;;;16.21;100.00;93977.84;5092823;28;20192;-58
2022/04/23 11:30:02;;;;;;;19.00;15.30;;;;;;;15.99;100.00;93971.94;5093258;28;20195;-58
2022/04/23 11:32:30;;;;;;;19.70;16.00;;;;;;;15.77;100.00;93979.03;5093508;28;20183;-58
2022/04/23 11:34:57;;;;;;;24.30;17.07;;;;;;;16.11;100.00;93962.66;5093034;28;20215;-59